Time;durP1;ratioP1;P1;durP2;ratioP2;P2;SDS_P1;SDS_P2;PMS_P1;PMS_P2;Temp;Humidity;BMP_temperature;BMP_pressure;BME280_temperature;BME280_humidity;BME280_pressure;Samples;Min_cycle;Max_cycle;Signal;HPM_P1;HPM_P2
2022/03/12 00:01:35;;;;;;;3.72;0.25;;;24.30;39.50;;;;;;5128380;27;20053;-63
2022/03/12 00:04:06;;;;;;;6.13;1.20;;;24.40;39.40;;;;;;5103479;27;20058;-63
2022/03/12 00:06:35;;;;;;;1.85;0.10;;;24.40;39.30;;;;;;5106901;27;20043;-63
2022/03/12 00:09:02;;;;;;;0.98;0.30;;;24.50;39.20;;;;;;5122827;27;20399;-62
2022/03/12 00:11:34;;;;;;;0.47;0.20;;;24.50;39.10;;;;;;5122891;27;20503;-62
2022/03/12 00:14:03;;;;;;;0.55;0.10;;;24.50;38.90;;;;;;5125159;27;20528;-61
2022/03/12 00:16:31;;;;;;;2.90;0.28;;;24.60;38.80;;;;;;5126833;27;20036;-62
2022/03/12 00:19:01;;;;;;;6.28;0.50;;;24.60;38.70;;;;;;5122744;27;20126;-62
2022/03/12 00:21:35;;;;;;;2.33;0.47;;;24.70;38.60;;;;;;5122959;27;20032;-61
2022/03/12 00:24:06;;;;;;;2.25;0.20;;;24.70;38.50;;;;;;5125040;27;20042;-61
2022/03/12 00:26:34;;;;;;;0.63;0.10;;;24.70;38.40;;;;;;5127570;27;20106;-61
2022/03/12 00:29:01;;;;;;;3.75;0.20;;;24.70;38.30;;;;;;5115375;27;20070;-62
2022/03/12 00:31:28;;;;;;;0.82;0.82;;;24.80;38.30;;;;;;5127318;27;20513;-62
2022/03/12 00:33:58;;;;;;;2.70;0.47;;;24.70;38.10;;;;;;5120876;27;20147;-62
2022/03/12 00:36:25;;;;;;;0.68;0.10;;;24.80;38.10;;;;;;5119226;27;20035;-66
2022/03/12 00:38:54;;;;;;;1.80;0.10;;;24.80;38.00;;;;;;5119255;27;20506;-62
2022/03/12 00:41:21;;;;;;;0.45;0.10;;;24.90;38.00;;;;;;5122684;27;20031;-61
2022/03/12 00:43:48;;;;;;;0.57;0.30;;;24.90;38.00;;;;;;5115949;27;20514;-62
2022/03/12 00:46:15;;;;;;;0.55;0.13;;;24.90;37.90;;;;;;5119963;27;20039;-62
2022/03/12 00:48:42;;;;;;;2.38;0.10;;;24.90;37.90;;;;;;5131760;27;20043;-62
2022/03/12 00:51:11;;;;;;;2.17;0.22;;;24.90;37.90;;;;;;5124783;27;20078;-62
2022/03/12 00:53:40;;;;;;;0.32;0.10;;;24.90;37.90;;;;;;5115108;27;20035;-62
2022/03/12 00:56:09;;;;;;;0.20;0.05;;;24.90;37.90;;;;;;5115788;27;20114;-63
2022/03/12 00:58:37;;;;;;;0.20;0.10;;;24.90;38.40;;;;;;5122933;27;20415;-63
2022/03/12 01:01:05;;;;;;;1.30;0.03;;;24.90;37.70;;;;;;5133333;27;20035;-61
2022/03/12 01:03:33;;;;;;;1.77;0.10;;;25.00;37.80;;;;;;5108558;27;20039;-62
2022/03/12 01:06:01;;;;;;;0.95;0.10;;;25.00;37.70;;;;;;5120207;27;20154;-63
2022/03/12 01:08:29;;;;;;;0.22;0.20;;;25.00;37.70;;;;;;5122181;27;20043;-62
2022/03/12 01:11:00;;;;;;;1.90;0.40;;;25.00;37.60;;;;;;5115556;27;20158;-62
2022/03/12 01:13:29;;;;;;;0.25;0.10;;;25.00;37.60;;;;;;5122926;27;20546;-62
2022/03/12 01:15:56;;;;;;;1.85;0.10;;;25.00;37.50;;;;;;5120110;27;20040;-62
2022/03/12 01:18:24;;;;;;;0.73;0.10;;;25.00;37.50;;;;;;5122637;27;20040;-63
2022/03/12 01:20:52;;;;;;;0.13;0.10;;;25.00;37.50;;;;;;5118695;27;20043;-63
2022/03/12 01:23:24;;;;;;;2.40;0.10;;;25.00;37.50;;;;;;5121323;27;20039;-62
2022/03/12 01:25:53;;;;;;;0.63;0.32;;;25.00;37.40;;;;;;5115332;27;20043;-62
2022/03/12 01:28:21;;;;;;;0.30;0.10;;;25.00;37.40;;;;;;5117333;27;20057;-63
2022/03/12 01:30:49;;;;;;;0.75;0.10;;;25.10;37.50;;;;;;5130520;27;20078;-63
2022/03/12 01:33:18;;;;;;;0.30;0.10;;;25.10;37.50;;;;;;5121611;27;20055;-62
2022/03/12 01:35:45;;;;;;;0.10;0.10;;;25.10;37.50;;;;;;5119283;27;20043;-58
2022/03/12 01:38:14;;;;;;;1.55;0.10;;;25.10;37.50;;;;;;5115291;27;20049;-59
2022/03/12 01:40:41;;;;;;;3.70;0.43;;;25.00;37.50;;;;;;5106676;27;20436;-56
2022/03/12 01:43:08;;;;;;;1.17;0.30;;;25.10;37.50;;;;;;5122309;27;20063;-62
2022/03/12 01:45:36;;;;;;;0.63;0.10;;;25.10;37.50;;;;;;5122927;27;20042;-61
2022/03/12 01:48:07;;;;;;;1.75;0.30;;;25.10;37.50;;;;;;5119590;27;20031;-62
2022/03/12 01:50:38;;;;;;;0.32;0.03;;;25.10;38.10;;;;;;5127768;27;20043;-63
2022/03/12 01:53:08;;;;;;;0.65;0.63;;;25.10;37.50;;;;;;5117261;27;20035;-62
2022/03/12 01:55:37;;;;;;;0.63;0.45;;;25.10;37.50;;;;;;5121359;27;20133;-61
2022/03/12 01:58:05;;;;;;;0.40;0.10;;;25.10;37.40;;;;;;5119477;27;20040;-63
2022/03/12 02:00:43;;;;;;;0.03;0.03;;;25.10;37.40;;;;;;5117682;27;20036;-62
2022/03/12 02:03:12;;;;;;;0.57;0.20;;;25.10;37.30;;;;;;5125010;27;20426;-63
2022/03/12 02:05:39;;;;;;;0.43;0.10;;;25.10;37.30;;;;;;5119937;27;20414;-63
2022/03/12 02:08:07;;;;;;;0.65;0.22;;;25.10;37.20;;;;;;5111023;27;20031;-63
2022/03/12 02:10:36;;;;;;;0.13;0.13;;;25.10;37.30;;;;;;5116594;27;20876;-62
2022/03/12 02:13:03;;;;;;;0.60;0.10;;;25.10;37.20;;;;;;5127105;27;20050;-62
2022/03/12 02:15:31;;;;;;;0.10;0.05;;;25.10;37.20;;;;;;5121558;27;20047;-63
2022/03/12 02:17:58;;;;;;;1.75;0.20;;;25.10;37.10;;;;;;5126192;27;20097;-62
2022/03/12 02:20:27;;;;;;;0.47;0.10;;;25.10;37.10;;;;;;5115818;27;20641;-62
2022/03/12 02:22:54;;;;;;;0.82;0.25;;;25.10;37.10;;;;;;5124029;27;20035;-62
2022/03/12 02:25:27;;;;;;;1.02;0.10;;;25.10;37.10;;;;;;5121118;27;20035;-62
2022/03/12 02:27:55;;;;;;;0.65;0.10;;;25.10;37.10;;;;;;5121939;27;20309;-64
2022/03/12 02:30:25;;;;;;;1.10;0.30;;;25.10;37.10;;;;;;5121684;27;20800;-62
2022/03/12 02:33:00;;;;;;;0.10;0.10;;;25.10;37.10;;;;;;5119234;27;20044;-62
2022/03/12 02:35:30;;;;;;;0.75;0.10;;;25.10;37.10;;;;;;5121819;27;20070;-61
2022/03/12 02:37:59;;;;;;;0.75;0.22;;;25.10;37.10;;;;;;5119148;27;20049;-61
2022/03/12 02:40:27;;;;;;;3.97;0.20;;;25.10;37.20;;;;;;5117963;27;20491;-61
2022/03/12 02:42:57;;;;;;;1.75;0.20;;;25.10;37.20;;;;;;5116908;27;20044;-60
2022/03/12 02:45:26;;;;;;;0.82;0.75;;;25.10;37.20;;;;;;5127782;27;20031;-60
2022/03/12 02:47:55;;;;;;;1.77;0.10;;;25.10;37.20;;;;;;5119131;27;20047;-60
2022/03/12 02:50:23;;;;;;;0.63;0.10;;;25.10;37.10;;;;;;5111715;27;20503;-61
2022/03/12 02:52:54;;;;;;;0.20;0.10;;;25.10;37.10;;;;;;5116805;27;20043;-61
2022/03/12 02:55:23;;;;;;;0.95;0.40;;;25.10;37.10;;;;;;5131886;27;20459;-60
2022/03/12 02:57:53;;;;;;;0.68;0.20;;;25.10;37.10;;;;;;5120023;27;20059;-61
2022/03/12 03:00:21;;;;;;;0.20;0.08;;;25.10;37.10;;;;;;5120479;27;20035;-64
2022/03/12 03:02:52;;;;;;;0.17;0.10;;;25.10;37.10;;;;;;5115924;27;20051;-61
2022/03/12 03:05:23;;;;;;;0.93;0.40;;;25.10;37.00;;;;;;5122434;27;20070;-66
2022/03/12 03:07:57;;;;;;;1.75;0.10;;;25.10;37.00;;;;;;5114609;27;20092;-62
2022/03/12 03:10:33;;;;;;;4.15;0.10;;;25.10;37.00;;;;;;5119293;27;20040;-62
2022/03/12 03:13:23;;;;;;;4.68;0.10;;;25.10;37.00;;;;;;5114554;27;20047;-61
2022/03/12 03:15:52;;;;;;;1.42;0.10;;;25.10;37.60;;;;;;5115476;27;20036;-61
2022/03/12 03:18:22;;;;;;;3.40;0.10;;;25.10;37.00;;;;;;5122749;27;20513;-61
2022/03/12 03:20:50;;;;;;;1.77;0.10;;;25.10;37.00;;;;;;5113695;28;20052;-62
2022/03/12 03:23:17;;;;;;;6.13;0.10;;;25.10;37.00;;;;;;5125540;28;20043;-62
2022/03/12 03:25:45;;;;;;;1.20;0.20;;;25.10;37.00;;;;;;5113417;27;20796;-64
2022/03/12 03:28:13;;;;;;;1.15;0.10;;;25.10;36.90;;;;;;5127856;27;20573;-63
2022/03/12 03:30:41;;;;;;;2.05;0.00;;;25.10;36.90;;;;;;5119397;27;20048;-63
2022/03/12 03:33:09;;;;;;;0.68;0.20;;;25.00;37.40;;;;;;5118479;27;20054;-62
2022/03/12 03:35:38;;;;;;;0.82;0.10;;;25.10;36.90;;;;;;5113781;28;20051;-62
2022/03/12 03:38:06;;;;;;;0.52;0.17;;;25.00;36.80;;;;;;5127433;27;20035;-62
2022/03/12 03:40:34;;;;;;;1.38;0.10;;;25.00;36.80;;;;;;5118458;27;20054;-63
2022/03/12 03:43:01;;;;;;;0.25;0.00;;;25.10;36.80;;;;;;5119604;27;20046;-62
2022/03/12 03:45:31;;;;;;;0.60;0.10;;;25.10;36.90;;;;;;5108445;27;20064;-62
2022/03/12 03:47:58;;;;;;;0.22;0.00;;;25.10;36.80;;;;;;5120612;27;20039;-62
2022/03/12 03:50:26;;;;;;;0.25;0.00;;;25.10;36.80;;;;;;5112744;28;20059;-62
2022/03/12 03:52:55;;;;;;;0.22;0.10;;;25.10;36.80;;;;;;5119485;27;20050;-62
2022/03/12 03:55:25;;;;;;;0.10;0.10;;;25.10;36.80;;;;;;5127530;27;20051;-61
2022/03/12 03:57:53;;;;;;;0.28;0.15;;;25.10;36.80;;;;;;5120810;27;20116;-62
2022/03/12 04:00:22;;;;;;;1.42;0.10;;;25.10;36.80;;;;;;5125060;27;20050;-62
2022/03/12 04:03:01;;;;;;;0.20;0.05;;;25.10;36.70;;;;;;5098668;27;20522;-62
2022/03/12 04:05:28;;;;;;;0.10;0.10;;;25.10;36.70;;;;;;5110900;27;20549;-62
2022/03/12 04:07:55;;;;;;;1.95;0.32;;;25.10;36.70;;;;;;5117452;27;20040;-62
2022/03/12 04:10:22;;;;;;;0.45;0.22;;;25.10;36.70;;;;;;5130285;27;20588;-62
2022/03/12 04:12:49;;;;;;;2.20;0.10;;;25.10;36.70;;;;;;5122628;27;20051;-62
2022/03/12 04:15:17;;;;;;;0.15;0.05;;;25.10;36.70;;;;;;5122325;27;20034;-62
2022/03/12 04:17:45;;;;;;;1.45;0.00;;;25.10;36.60;;;;;;5119371;27;20074;-62
2022/03/12 04:20:14;;;;;;;1.10;0.05;;;25.10;36.60;;;;;;5127809;27;20065;-64
2022/03/12 04:22:41;;;;;;;0.50;0.20;;;25.10;36.70;;;;;;5123092;27;20036;-60
2022/03/12 04:25:12;;;;;;;0.47;0.10;;;25.10;36.60;;;;;;5126264;27;20578;-62
2022/03/12 04:27:42;;;;;;;0.10;0.00;;;25.10;36.60;;;;;;5113007;27;20043;-62
2022/03/12 04:30:11;;;;;;;0.32;0.32;;;25.10;36.60;;;;;;5124339;27;20043;-63
2022/03/12 04:32:39;;;;;;;0.35;0.03;;;25.10;36.60;;;;;;5100216;27;20594;-62
2022/03/12 04:35:07;;;;;;;5.50;0.10;;;25.10;36.60;;;;;;5113792;27;20150;-62
2022/03/12 04:37:37;;;;;;;0.20;0.00;;;25.10;37.20;;;;;;5126271;27;20039;-62
2022/03/12 04:40:07;;;;;;;0.45;0.00;;;25.10;36.60;;;;;;5119329;27;20097;-61
2022/03/12 04:42:34;;;;;;;1.52;0.17;;;25.10;36.60;;;;;;5109099;27;20042;-62
2022/03/12 04:45:02;;;;;;;0.57;0.10;;;25.00;36.50;;;;;;5124428;27;20051;-62
2022/03/12 04:47:29;;;;;;;0.77;0.10;;;25.10;36.60;;;;;;5119499;27;20027;-62
2022/03/12 04:49:56;;;;;;;0.43;0.10;;;25.10;36.60;;;;;;5118383;27;20043;-63
2022/03/12 04:52:23;;;;;;;0.05;0.05;;;25.10;36.60;;;;;;5128519;27;20566;-62
2022/03/12 04:54:51;;;;;;;0.10;0.10;;;25.10;36.60;;;;;;5122793;27;20047;-62
2022/03/12 04:57:19;;;;;;;0.13;0.10;;;25.10;36.60;;;;;;5121264;27;20062;-62
2022/03/12 04:59:46;;;;;;;0.70;0.13;;;25.10;36.60;;;;;;5117400;27;20156;-62
2022/03/12 05:02:13;;;;;;;0.10;0.10;;;25.10;36.50;;;;;;5123854;27;20069;-62
2022/03/12 05:04:41;;;;;;;0.52;0.08;;;25.10;36.50;;;;;;5113596;27;20039;-62
2022/03/12 05:07:09;;;;;;;0.73;0.10;;;25.10;36.50;;;;;;5122693;27;20036;-62
2022/03/12 05:09:36;;;;;;;0.52;0.10;;;25.00;36.50;;;;;;5129756;27;20119;-62
2022/03/12 05:12:06;;;;;;;1.27;0.30;;;25.00;36.40;;;;;;5123401;27;20122;-62
2022/03/12 05:14:34;;;;;;;0.32;0.10;;;25.10;36.50;;;;;;5115473;27;20050;-63
2022/03/12 05:17:05;;;;;;;1.10;0.40;;;25.10;36.50;;;;;;5120733;27;20043;-62
2022/03/12 05:19:36;;;;;;;3.75;0.10;;;25.00;36.40;;;;;;5119261;27;20055;-61
2022/03/12 05:22:04;;;;;;;1.38;0.10;;;25.00;36.50;;;;;;5117593;27;20044;-61
2022/03/12 05:24:32;;;;;;;2.58;0.13;;;25.00;36.50;;;;;;5126559;27;20099;-62
2022/03/12 05:26:59;;;;;;;1.90;0.45;;;25.00;36.50;;;;;;5119911;27;20042;-63
2022/03/12 05:29:30;;;;;;;1.95;0.10;;;25.00;36.50;;;;;;5112791;27;20418;-61
2022/03/12 05:31:57;;;;;;;0.60;0.05;;;25.10;36.60;;;;;;5099956;27;20051;-62
2022/03/12 05:34:24;;;;;;;1.27;0.00;;;25.00;36.50;;;;;;5130974;27;20582;-60
2022/03/12 05:36:52;;;;;;;0.20;0.10;;;25.00;36.50;;;;;;5120631;27;20050;-61
2022/03/12 05:39:19;;;;;;;0.32;0.10;;;25.10;36.70;;;;;;5119527;27;20392;-61
2022/03/12 05:41:48;;;;;;;0.10;0.00;;;25.00;36.60;;;;;;5125222;27;20081;-62
2022/03/12 05:44:15;;;;;;;0.10;0.10;;;25.10;36.70;;;;;;5121230;27;20031;-62
2022/03/12 05:46:45;;;;;;;0.15;0.00;;;25.00;36.60;;;;;;5122913;27;20392;-60
2022/03/12 05:49:12;;;;;;;0.10;0.00;;;25.10;36.90;;;;;;5126562;27;20046;-60
2022/03/12 05:51:42;;;;;;;0.85;0.10;;;25.10;36.90;;;;;;5108751;27;20043;-57
2022/03/12 05:54:09;;;;;;;0.98;0.20;;;25.10;36.90;;;;;;5123827;27;20044;-59
2022/03/12 05:56:40;;;;;;;0.43;0.10;;;25.10;36.90;;;;;;5113865;27;20089;-59
2022/03/12 05:59:08;;;;;;;0.30;0.00;;;25.10;36.90;;;;;;5110965;27;20144;-58
2022/03/12 06:01:35;;;;;;;0.63;0.10;;;25.10;36.90;;;;;;5109059;27;20050;-60
2022/03/12 06:04:04;;;;;;;0.10;0.10;;;25.10;36.80;;;;;;5117318;27;20519;-57
2022/03/12 06:06:35;;;;;;;3.60;0.20;;;25.10;36.80;;;;;;5124408;27;20539;-61
2022/03/12 06:09:05;;;;;;;0.57;0.10;;;25.20;37.00;;;;;;5119576;27;20378;-61
2022/03/12 06:11:36;;;;;;;0.52;0.38;;;25.20;37.00;;;;;;5114157;27;20039;-61
2022/03/12 06:14:04;;;;;;;0.35;0.10;;;25.20;37.00;;;;;;5116679;27;20372;-59
2022/03/12 06:16:32;;;;;;;0.90;0.10;;;25.20;37.00;;;;;;5126902;27;20461;-59
2022/03/12 06:18:59;;;;;;;0.10;0.03;;;25.30;37.00;;;;;;5111048;27;20145;-61
2022/03/12 06:21:28;;;;;;;4.30;0.10;;;25.30;36.90;;;;;;5125298;27;20047;-63
2022/03/12 06:23:56;;;;;;;2.65;0.10;;;25.40;36.90;;;;;;5119780;27;20413;-63
2022/03/12 06:26:23;;;;;;;2.85;0.40;;;25.40;36.80;;;;;;5103718;27;20035;-63
2022/03/12 06:28:50;;;;;;;1.38;0.38;;;25.40;36.70;;;;;;5113183;27;20158;-63
2022/03/12 06:31:18;;;;;;;4.03;0.10;;;25.50;36.60;;;;;;5120727;27;20552;-60
2022/03/12 06:33:45;;;;;;;11.45;0.40;;;25.60;36.70;;;;;;5122196;27;20115;-59
2022/03/12 06:36:13;;;;;;;50.00;1.48;;;25.60;37.80;;;;;;5128798;27;20027;-51
2022/03/12 06:38:41;;;;;;;12.88;1.17;;;25.60;38.30;;;;;;5113443;27;20093;-52
2022/03/12 06:41:09;;;;;;;9.52;1.60;;;25.50;38.90;;;;;;5129482;27;20107;-52
2022/03/12 06:43:42;;;;;;;7.88;0.50;;;25.40;39.30;;;;;;5115885;27;20028;-52
2022/03/12 06:46:14;;;;;;;6.57;0.40;;;25.20;39.70;;;;;;5120993;27;20842;-51
2022/03/12 06:48:42;;;;;;;7.75;1.00;;;25.00;40.10;;;;;;5127494;27;20127;-51
2022/03/12 06:51:10;;;;;;;5.30;0.10;;;24.90;40.50;;;;;;5127343;27;20101;-51
2022/03/12 06:53:37;;;;;;;3.55;0.17;;;24.70;40.80;;;;;;5116743;27;20046;-50
2022/03/12 06:56:07;;;;;;;5.18;0.43;;;24.60;41.00;;;;;;5116407;27;20035;-51
2022/03/12 06:58:35;;;;;;;8.13;0.25;;;24.50;41.20;;;;;;5128668;27;20050;-54
2022/03/12 07:01:02;;;;;;;5.15;0.73;;;24.40;41.70;;;;;;5119226;27;20607;-52
2022/03/12 07:03:29;;;;;;;5.35;0.35;;;24.20;42.00;;;;;;5120327;27;20119;-56
2022/03/12 07:05:56;;;;;;;3.05;0.30;;;24.10;42.20;;;;;;5124037;27;20043;-52
2022/03/12 07:08:24;;;;;;;6.03;0.10;;;24.00;42.60;;;;;;5131884;27;20127;-51
2022/03/12 07:10:51;;;;;;;6.40;0.43;;;23.90;42.80;;;;;;5120040;27;20048;-49
2022/03/12 07:13:19;;;;;;;2.20;0.40;;;23.80;43.00;;;;;;5122058;27;20036;-51
2022/03/12 07:15:47;;;;;;;1.95;0.10;;;23.70;43.20;;;;;;5127195;27;20062;-50
2022/03/12 07:18:14;;;;;;;2.47;0.20;;;23.60;43.30;;;;;;5120822;27;20031;-54
2022/03/12 07:20:41;;;;;;;3.90;0.17;;;23.50;43.20;;;;;;5112661;28;20586;-54
2022/03/12 07:23:08;;;;;;;1.00;0.30;;;23.40;43.30;;;;;;5121777;28;20942;-53
2022/03/12 07:25:35;;;;;;;1.08;0.08;;;23.40;43.50;;;;;;5127744;27;20058;-52
2022/03/12 07:28:02;;;;;;;3.22;0.30;;;23.30;43.60;;;;;;5115430;27;20556;-52
2022/03/12 07:30:30;;;;;;;1.00;0.47;;;23.20;43.60;;;;;;5105951;27;20039;-54
2022/03/12 07:32:58;;;;;;;1.55;0.25;;;23.10;43.80;;;;;;5117604;27;20120;-50
2022/03/12 07:35:27;;;;;;;2.10;0.13;;;23.00;43.80;;;;;;5115251;28;20038;-50
2022/03/12 07:37:54;;;;;;;1.55;0.55;;;23.00;43.90;;;;;;5113819;27;20062;-52
2022/03/12 07:40:21;;;;;;;0.52;0.20;;;22.90;44.00;;;;;;5126179;27;20040;-50
2022/03/12 07:42:50;;;;;;;2.88;0.15;;;22.80;44.10;;;;;;5122729;27;20040;-51
2022/03/12 07:45:19;;;;;;;2.28;0.17;;;22.80;44.10;;;;;;5122511;27;20027;-51
2022/03/12 07:47:49;;;;;;;3.05;0.15;;;22.70;44.10;;;;;;5118329;27;20069;-48
2022/03/12 07:50:16;;;;;;;1.88;0.43;;;22.60;44.30;;;;;;5125235;27;20038;-51
2022/03/12 07:52:43;;;;;;;1.85;0.10;;;22.60;44.40;;;;;;5119936;27;20043;-52
2022/03/12 07:55:11;;;;;;;1.00;0.10;;;22.50;44.30;;;;;;5123531;27;20054;-53
2022/03/12 07:57:39;;;;;;;1.65;0.10;;;22.50;44.30;;;;;;5130714;27;20125;-51
2022/03/12 08:00:08;;;;;;;0.80;0.10;;;22.50;44.30;;;;;;5124184;27;20086;-51
2022/03/12 08:02:41;;;;;;;2.20;0.50;;;22.40;44.20;;;;;;5115466;27;20051;-51
2022/03/12 08:05:10;;;;;;;0.20;0.10;;;22.40;44.30;;;;;;5112996;27;20039;-49
2022/03/12 08:07:39;;;;;;;0.20;0.20;;;22.30;44.20;;;;;;5126648;27;20047;-50
2022/03/12 08:10:06;;;;;;;1.83;0.03;;;22.30;44.30;;;;;;5119229;27;20036;-50
2022/03/12 08:12:35;;;;;;;1.48;0.10;;;22.20;44.40;;;;;;5126192;27;20035;-51
2022/03/12 08:15:08;;;;;;;1.38;0.32;;;22.20;44.40;;;;;;5121096;27;20448;-50
2022/03/12 08:17:36;;;;;;;0.57;0.10;;;22.20;44.50;;;;;;5113870;27;20050;-51
2022/03/12 08:20:07;;;;;;;2.10;0.10;;;22.10;44.40;;;;;;5100035;27;20047;-52
2022/03/12 08:22:38;;;;;;;2.40;0.10;;;22.10;44.40;;;;;;5111104;27;20047;-52
2022/03/12 08:25:08;;;;;;;0.93;0.10;;;22.10;44.50;;;;;;5122429;27;20396;-49
2022/03/12 08:27:35;;;;;;;0.85;0.15;;;22.00;44.60;;;;;;5121989;27;20156;-51
2022/03/12 08:30:07;;;;;;;1.58;0.25;;;22.00;44.60;;;;;;5122636;27;20483;-50
2022/03/12 08:32:35;;;;;;;0.20;0.10;;;21.90;44.50;;;;;;5124769;27;20088;-49
2022/03/12 08:35:03;;;;;;;2.17;0.10;;;22.00;44.50;;;;;;5120446;27;20046;-53
2022/03/12 08:37:30;;;;;;;0.65;0.10;;;21.90;44.40;;;;;;5127997;27;20039;-49
2022/03/12 08:39:59;;;;;;;0.28;0.00;;;21.90;44.50;;;;;;5131130;27;20071;-52
2022/03/12 08:42:26;;;;;;;1.48;0.10;;;21.80;44.40;;;;;;5118814;27;20040;-51
2022/03/12 08:44:53;;;;;;;0.17;0.10;;;21.80;44.40;;;;;;5118157;27;20043;-51
2022/03/12 08:47:20;;;;;;;0.50;0.10;;;21.80;44.40;;;;;;5121602;27;20103;-54
2022/03/12 08:49:47;;;;;;;0.80;0.10;;;21.80;44.50;;;;;;5115643;27;20039;-53
2022/03/12 08:52:14;;;;;;;1.38;0.55;;;21.80;44.50;;;;;;5118444;27;20463;-53
2022/03/12 08:54:41;;;;;;;1.45;0.20;;;21.80;44.50;;;;;;5127095;27;20788;-51
2022/03/12 08:57:09;;;;;;;1.55;0.10;;;21.80;44.50;;;;;;5120700;27;20049;-55
2022/03/12 08:59:36;;;;;;;0.65;0.40;;;21.70;44.50;;;;;;5113073;27;20039;-53
2022/03/12 09:02:04;;;;;;;0.13;0.10;;;21.80;44.50;;;;;;5117668;27;20043;-52
2022/03/12 09:04:31;;;;;;;0.08;0.00;;;21.70;44.50;;;;;;5128490;27;20048;-54
2022/03/12 09:06:58;;;;;;;0.10;0.10;;;21.70;44.50;;;;;;5121300;27;20050;-54
2022/03/12 09:09:25;;;;;;;0.15;0.10;;;21.70;44.50;;;;;;5105364;27;20042;-51
2022/03/12 09:11:52;;;;;;;0.30;0.00;;;21.70;44.50;;;;;;5100115;27;20035;-54
2022/03/12 09:14:21;;;;;;;0.63;0.10;;;21.70;44.50;;;;;;5123112;27;20043;-53
2022/03/12 09:16:48;;;;;;;0.05;0.00;;;21.70;44.50;;;;;;5116370;27;20047;-52
2022/03/12 09:19:15;;;;;;;0.50;0.13;;;21.60;44.50;;;;;;5122599;27;20088;-53
2022/03/12 09:21:42;;;;;;;0.10;0.10;;;21.60;44.50;;;;;;5129674;27;20577;-54
2022/03/12 09:24:11;;;;;;;0.10;0.08;;;21.60;44.50;;;;;;5126683;27;20035;-51
2022/03/12 09:26:38;;;;;;;0.63;0.10;;;21.60;44.50;;;;;;5115760;27;20741;-51
2022/03/12 09:29:05;;;;;;;1.83;0.10;;;21.60;44.50;;;;;;5119604;27;20060;-50
2022/03/12 09:31:33;;;;;;;0.52;0.00;;;21.60;44.50;;;;;;5100334;27;20494;-48
2022/03/12 09:34:02;;;;;;;0.25;0.03;;;21.60;44.50;;;;;;5118392;27;20120;-53
2022/03/12 09:36:30;;;;;;;0.00;0.00;;;21.60;44.50;;;;;;5129351;27;20042;-54
2022/03/12 09:38:57;;;;;;;0.10;0.05;;;21.60;44.50;;;;;;5119724;27;20563;-53
2022/03/12 09:41:25;;;;;;;0.10;0.00;;;21.60;44.50;;;;;;5113820;27;20431;-52
2022/03/12 09:43:52;;;;;;;1.17;0.10;;;21.60;44.50;;;;;;5118037;27;20508;-50
2022/03/12 09:46:19;;;;;;;0.10;0.10;;;21.60;44.50;;;;;;5129116;27;20043;-53
2022/03/12 09:48:47;;;;;;;0.28;0.28;;;21.60;44.50;;;;;;5110320;27;20043;-52
2022/03/12 09:51:15;;;;;;;0.40;0.10;;;21.60;44.50;;;;;;5127307;27;20130;-51
2022/03/12 09:53:42;;;;;;;0.00;0.00;;;21.60;44.40;;;;;;5116584;27;20046;-52
2022/03/12 09:56:09;;;;;;;0.10;0.05;;;21.60;44.40;;;;;;5111160;27;20130;-53
2022/03/12 09:58:38;;;;;;;0.10;0.00;;;21.60;44.40;;;;;;5124645;27;20471;-50
2022/03/12 10:01:05;;;;;;;0.10;0.10;;;21.60;44.40;;;;;;5124186;27;20074;-51
2022/03/12 10:03:32;;;;;;;0.10;0.10;;;21.60;45.00;;;;;;5127581;27;20596;-52
2022/03/12 10:06:01;;;;;;;0.10;0.10;;;21.60;44.40;;;;;;5121354;27;20800;-50
2022/03/12 10:08:27;;;;;;;0.08;0.08;;;21.60;44.40;;;;;;5128363;27;20107;-50
2022/03/12 10:10:55;;;;;;;0.47;0.10;;;21.60;44.30;;;;;;5118529;27;20447;-52
2022/03/12 10:13:22;;;;;;;1.75;0.10;;;21.60;44.30;;;;;;5119552;27;20157;-50
2022/03/12 10:15:49;;;;;;;2.20;0.10;;;21.70;44.30;;;;;;5117268;27;20036;-52
2022/03/12 10:18:16;;;;;;;0.85;0.03;;;21.60;44.20;;;;;;5122650;27;20403;-52
2022/03/12 10:20:45;;;;;;;0.30;0.10;;;21.70;44.30;;;;;;5128954;27;20043;-50
2022/03/12 10:23:14;;;;;;;1.85;0.10;;;21.70;44.20;;;;;;5112986;27;20387;-49
2022/03/12 10:25:45;;;;;;;0.47;0.47;;;21.70;44.20;;;;;;5117801;27;20043;-51
2022/03/12 10:28:13;;;;;;;0.20;0.08;;;21.70;44.30;;;;;;5128219;27;20515;-49
2022/03/12 10:30:40;;;;;;;0.95;0.10;;;21.70;44.20;;;;;;5107860;27;20034;-51
2022/03/12 10:33:08;;;;;;;0.60;0.10;;;21.70;44.10;;;;;;5118741;27;20035;-50
2022/03/12 10:35:37;;;;;;;2.35;0.10;;;21.70;44.10;;;;;;5120058;27;20043;-51
2022/03/12 10:38:11;;;;;;;1.77;0.10;;;21.70;44.00;;;;;;5126659;27;20035;-52
2022/03/12 10:40:40;;;;;;;0.10;0.10;;;21.80;44.10;;;;;;5110212;27;20058;-50
2022/03/12 10:43:14;;;;;;;2.28;0.10;;;21.80;44.00;;;;;;5121173;27;20035;-51
2022/03/12 10:45:43;;;;;;;0.00;0.00;;;21.80;44.00;;;;;;5128109;27;20320;-50
2022/03/12 10:48:12;;;;;;;0.85;0.10;;;21.80;44.00;;;;;;5119725;27;20058;-53
2022/03/12 10:50:41;;;;;;;0.20;0.10;;;21.80;43.90;;;;;;5115701;27;20426;-51
2022/03/12 10:53:09;;;;;;;0.57;0.13;;;21.80;43.90;;;;;;5120227;27;20039;-51
2022/03/12 10:55:41;;;;;;;2.22;0.13;;;21.80;43.90;;;;;;5124004;27;20039;-51
2022/03/12 10:58:11;;;;;;;0.57;0.10;;;21.80;43.80;;;;;;5124783;27;20039;-51
2022/03/12 11:00:40;;;;;;;1.75;0.20;;;21.80;43.80;;;;;;5127646;27;20091;-51
2022/03/12 11:03:10;;;;;;;0.32;0.13;;;21.80;43.80;;;;;;5119030;27;20043;-50
2022/03/12 11:05:39;;;;;;;0.50;0.10;;;21.80;43.80;;;;;;5111155;27;20072;-55
2022/03/12 11:08:17;;;;;;;0.47;0.10;;;21.80;43.80;;;;;;5117842;27;20118;-53
2022/03/12 11:10:49;;;;;;;0.20;0.10;;;21.90;43.80;;;;;;5123724;27;20031;-49
2022/03/12 11:13:40;;;;;;;0.40;0.10;;;21.80;43.70;;;;;;5111847;28;20051;-54
2022/03/12 11:16:12;;;;;;;0.17;0.10;;;21.90;43.70;;;;;;5119500;27;20100;-54
2022/03/12 11:18:40;;;;;;;0.10;0.10;;;21.80;43.70;;;;;;5126231;27;20077;-52
2022/03/12 11:21:07;;;;;;;0.10;0.10;;;21.80;43.70;;;;;;5120497;27;20035;-53
2022/03/12 11:23:34;;;;;;;0.55;0.28;;;21.90;43.70;;;;;;5113618;28;20039;-52
2022/03/12 11:26:06;;;;;;;0.38;0.10;;;21.80;43.70;;;;;;5117338;27;20808;-54
2022/03/12 11:28:35;;;;;;;0.30;0.10;;;21.90;43.70;;;;;;5127551;27;20054;-53
2022/03/12 11:31:02;;;;;;;0.40;0.10;;;21.90;43.90;;;;;;5114974;27;20058;-51
2022/03/12 11:33:29;;;;;;;0.20;0.20;;;21.90;43.70;;;;;;5124490;27;20095;-56
2022/03/12 11:36:00;;;;;;;0.95;0.10;;;21.90;43.60;;;;;;5100959;27;20126;-55
2022/03/12 11:38:29;;;;;;;0.30;0.10;;;21.90;43.60;;;;;;5110578;28;20019;-53
2022/03/12 11:41:05;;;;;;;1.17;0.52;;;21.90;43.60;;;;;;5113489;27;20039;-51
2022/03/12 11:43:38;;;;;;;0.20;0.10;;;21.90;43.60;;;;;;5125105;27;20432;-53
2022/03/12 11:46:08;;;;;;;0.30;0.10;;;21.90;43.60;;;;;;5118750;27;20048;-52
2022/03/12 11:48:38;;;;;;;0.73;0.17;;;21.90;43.60;;;;;;5120731;27;20031;-51
2022/03/12 11:51:21;;;;;;;2.05;0.13;;;21.90;43.60;;;;;;5120171;27;20035;-53
2022/03/12 11:53:49;;;;;;;0.20;0.10;;;21.90;43.50;;;;;;5120956;27;20383;-52
2022/03/12 11:56:18;;;;;;;0.63;0.10;;;21.90;43.50;;;;;;5106246;28;20039;-53
2022/03/12 11:58:46;;;;;;;0.10;0.10;;;21.90;43.50;;;;;;5115099;27;20043;-52
2022/03/12 12:01:20;;;;;;;0.52;0.10;;;21.90;43.50;;;;;;5126062;27;20101;-54
2022/03/12 12:03:47;;;;;;;0.20;0.10;;;21.90;43.50;;;;;;5120067;27;20096;-51
2022/03/12 12:06:15;;;;;;;0.98;0.10;;;21.90;43.50;;;;;;5120491;27;20038;-52
2022/03/12 12:08:43;;;;;;;2.30;0.10;;;21.90;43.50;;;;;;5118362;27;20043;-54
2022/03/12 12:11:11;;;;;;;1.05;0.10;;;21.90;43.50;;;;;;5122793;28;20046;-52
2022/03/12 12:13:43;;;;;;;0.25;0.10;;;21.90;43.50;;;;;;5129759;27;20050;-49
2022/03/12 12:16:10;;;;;;;0.20;0.10;;;21.90;43.50;;;;;;5125661;27;20063;-49
2022/03/12 12:18:37;;;;;;;0.10;0.10;;;21.90;43.50;;;;;;5117485;27;20491;-50
2022/03/12 12:21:04;;;;;;;1.45;0.13;;;21.90;43.40;;;;;;5116450;27;20125;-50
2022/03/12 12:23:31;;;;;;;1.95;0.20;;;21.90;43.40;;;;;;5128083;27;20057;-51
2022/03/12 12:26:09;;;;;;;0.10;0.00;;;21.90;43.40;;;;;;5122958;27;20054;-51
2022/03/12 12:28:49;;;;;;;0.30;0.10;;;21.90;43.40;;;;;;5102280;27;20139;-51
2022/03/12 12:31:21;;;;;;;0.10;0.10;;;21.90;43.40;;;;;;5125409;27;20038;-50
2022/03/12 12:33:48;;;;;;;1.08;0.10;;;21.80;43.40;;;;;;5130587;27;20039;-50
2022/03/12 12:36:16;;;;;;;0.15;0.10;;;21.80;43.40;;;;;;5125798;27;20080;-51
2022/03/12 12:39:06;;;;;;;0.73;0.20;;;21.80;43.40;;;;;;5117654;27;20457;-51
2022/03/12 12:41:52;;;;;;;0.13;0.10;;;21.80;43.50;;;;;;5117443;27;20092;-50
2022/03/12 12:44:35;;;;;;;0.22;0.20;;;21.80;43.50;;;;;;5115253;27;20028;-50
2022/03/12 12:47:04;;;;;;;1.90;0.10;;;21.80;43.50;;;;;;5114964;27;20039;-53
2022/03/12 12:49:36;;;;;;;0.65;0.10;;;21.80;44.20;;;;;;5122786;27;20039;-50
2022/03/12 12:52:04;;;;;;;0.30;0.10;;;21.80;43.60;;;;;;5119957;27;20385;-54
2022/03/12 12:54:57;;;;;;;0.77;0.25;;;21.80;43.60;;;;;;5120699;27;20043;-51